Impacts METAR Board
IDs:

KJFK - New York/Kennedy Int, NY, US

Updated at: 0000 UTC 24 Jun 2018
Potential Impact None Slight Moderate High
Time 23/12Z 23/13Z 23/14Z 23/15Z 23/16Z 23/17Z 23/18Z 23/19Z 23/20Z 23/21Z 23/22Z 23/23Z 24/00Z
Temp63 63 64 65 66 65 66 66 66 66 66 66 67
Dewpt59 60 61 62 62 62 62 62 62 62 62 63 63
Altim29.90 29.88 29.88 29.87 29.86 29.86 29.85 29.85 29.82 29.83 29.83 29.82 29.83
VIS10 10 9 10 10 10 9 10 10 10 10 10 10
CIG13 12 12 13 12 10 10 12 11 10 13 13 13
CoverOVCOVCOVCOVCOVCOVCOVCOVCOVCOVCOVCOVCOVC
FltCatMVFRMVFRMVFRMVFRMVFRMVFRMVFRMVFRMVFRMVFRMVFRMVFRMVFR
WX---DZ----------------------
WDir6060504030201034030060600
WSpd11 9 11 10 9 7 5 9 8 4 4 5 3
WGst-- -- -- -- -- -- -- -- -- -- -- -- --
Raw hourly METARs
KJFK 231151Z 06011KT 10SM OVC013 17/15 A2990 RMK AO2 SLP124 60000 70004 T01720150 10183 20172 55006
KJFK 231251Z 06009KT 10SM -DZ OVC012 17/16 A2988 RMK AO2 DZB48 SLP119 P0000 T01720156
KJFK 231351Z 05011KT 9SM OVC012 18/16 A2988 RMK AO2 DZE08 SLP117 P0000 T01780161
KJFK 231451Z 04010KT 10SM OVC013 18/17 A2987 RMK AO2 SLP114 60000 T01830167 56010
KJFK 231551Z 03009KT 10SM OVC012 19/17 A2986 RMK AO2 SLP111 T01890167
KJFK 231651Z 02007KT 10SM OVC010 18/17 A2986 RMK AO2 SLP110 T01830167
KJFK 231751Z 01005KT 9SM OVC010 19/17 A2985 RMK AO2 SLP109 60000 T01890167 10194 20172 56005
KJFK 231851Z 34009KT 10SM OVC012 19/17 A2985 RMK AO2 SLP106 T01890167
KJFK 231951Z 03008KT 10SM OVC011 19/17 A2982 RMK AO2 SLP098 T01890167
KJFK 232051Z VRB04KT 10SM OVC010 19/17 A2983 RMK AO2 SLP100 T01890167 55009
KJFK 232151Z 06004KT 10SM OVC013 19/17 A2983 RMK AO2 SLP099 T01890167
KJFK 232251Z 06005KT 10SM OVC013 19/17 A2982 RMK AO2 SLP096 T01890172
KJFK 232351Z VRB03KT 10SM BKN013 OVC023 19/17 A2983 RMK AO2 SLP102 T01940172 10194 20183 53001



Page loaded:  00:55 UTC  |   05:55 PM Pacific  |   06:55 PM Mountain  |   07:55 PM Central  |   08:55 PM Eastern

 

ADVISORIES

FORECASTS

FORECASTS

OBSERVATIONS

USER TOOLS

ABOUT US